Sacramento Mather Airport

Current Flights

Info
Name: Sacramento Mather Airport
Identifier:  MHR/KMHR
Local Time:  26. Jun 04:48
City
Flights per Day
18 flights
Distance: 933km (579mi)
Punctuality
77% (4 flights per day delayed)
Delay Average: 33190 minutes
Current Weather
 13 C (Humidity: 71%)
  7kt (12km/h / 8mph) from 140°
  16km (10 mi.)
 SK
 METAR KMHR 261045Z 14007KT 10SM SKC 13/08 A2984

Current Delays

Departures
N/A
Arrivals
N/A

Destinations

Top Destinations
Airport Flights
per week
Seats
per week
  Louisville (SDF) 24 3,029 3 432
  Redding (RDD) 14 - 2 0
  Modesto (MOD) 10 - 1 0
  Reno (RNO) 10 213 1 30
  Eureka (ACV) 9 - 1 0
  Chicago (RFD) 9 - 1 -1
  Ontario (ONT) 8 46 1 6
  Ukiah (UKI) 7 - 1 0
  Oakland (OAK) 6 - 0 0
  Chico (CIC) 5 - 0 0

Airlines & Planes

Top Airlines
Airline Flights
per Day
Seats
per Day
  United Parcel Service (UPS) 8 467
Redding Aero Enterprises 4 -
Reach Air Medical Services 1 -
  Flybe Nordic 1 -
  National Airlines 0 -
Jet Charter Inc ( Franklin Lakes Nj ) 0 -
Nordwind Airlines 0 -
  Novair 0 -
NetJets 0 0
  Nolinor Aviation 0 -
Top Plane Types
Model Flights Seats
Cessna C208 5.8/day - 0
Airbus A300-600 4.0/day - -4
Boeing B767-300 2.7/day 473/day 473.3
Cessna C402 1.9/day - 0
Beech B200 Super King Air 1.5/day - 0
Beech B300 Super King Air 350 1.4/day - 0
Boeing B757-200 1.3/day - -1.2666666666666666
Cessna C56X 1.2/day - -0.26666666666666666
Pilatus PC-12 0.5/day - 0